Terminal Aerodrome Forecast
Issued by NWS

Home | Current Version | Previous Version | Text Only | Print | Product List | Glossary On
Versions: 1 2 3 4 5 6 7 8 9 10 11 12 13 14
286
FTUS43 KICT 190635 AAA
TAFSLN
TAF AMD
KSLN 190635Z 1907/2006 19026G35KT P6SM OVC013 WS020/21050KT
     FM190900 21017G26KT P6SM SCT050 BKN080
     FM191200 25017G26KT P6SM BKN030
     FM191400 34013KT P6SM BKN030
     FM192300 02013KT P6SM BKN060=

USA.gov is the U.S. government's official web portal to all federal, state and local government web resources and services.